Mac Dill Air Force Base
KMCF : now visible

Airfield :











YOU CAN JOIN US ON...

 
LOGIN :

Register | Disclaimer

   EN    FR    IT 

 









Legend :    VFR   Marginal VFR   IFR   Intensive IFR   Very Intensive IFR
Visi :
Ceiling :
>= 8 km
>= 3000ft
5 to 8 km
1000 to 3000 ft
1500m to 5 km
500 to 1000 ft
800 to 1500m
200 to 500 ft
< 800m
< 200 ft
Symbols :   Thunderstorms  Fog  Heavy snow  Heavy precipitations  Wind > 20 kt






- Airport Elevation : 14 ft


KMCF - Mac Dill Air Force Base

CURRENT METAR :
  • 301656Z AUTO 36006KT 10SM CLR 24/14 A3001 RMK AO2 SLP165 T02350136 FZRANO $

EXPIRED METARs :
  • 301556Z AUTO 01007KT 10SM CLR 23/15 A3003 RMK AO2 SLP172 T02320145 FZRANO $
  • 301456Z AUTO 04006KT 10SM CLR 23/14 A3002 RMK AO2 SLP169 T02250143 51016 FZRANO $

TAF TAF KMCF
Valid from the 30 at 17:00 until the 31 at 23:00 UTC


301700Z 3017/3123 35009KT 9999 FEW090 QNH3001INS
BECMG 3107/3108 03009KT 9999 FEW030 QNH3007INS
BECMG 3117/3118 07010G15KT 9999 BKN050 QNH3007INS TX25/3020Z TN18/3107Z
KZMA FIR / North America



MET'MAP, your aeronautical weather chart ! - Copyright ORBIFLY December 2007 - Disclaimer

ORBIFLY MET'MAP TEAM :

Programming & Development : Alexandra Zaïnal
Concept & original design : Baudouin d'Aumeries
Assistance for programming : Marc-Olivier Méhu
Technical & hardware support : Manuel Goepfert

Contact : metmap@orbifly.com




SOURCES & CREDITS :

   NOAA       Earth
Advisory